Terminal Aerodrome Forecast
Issued by NWS

Current Version | Previous Version | Graphics & Text | Print | Product List | Glossary On
Versions: 1 2 3 4 5 6 7 8 9 10 11 12 13 14 15 16
000
FTUS41 KRNK 140526
TAFLWB
TAF
KLWB 140526Z 1406/1506 19008KT P6SM BKN150
     FM141000 23009KT P6SM SCT025 OVC050
     FM141500 19009KT P6SM -SHRA OVC040
     FM142100 20010KT P6SM OVC050
     FM150100 20004KT P6SM OVC035=

USA.gov is the U.S. government's official web portal to all federal, state and local government web resources and services.